Time;durP1;ratioP1;P1;durP2;ratioP2;P2;SDS_P1;SDS_P2;PMS_P1;PMS_P2;Temp;Humidity;BMP_temperature;BMP_pressure;BME280_temperature;BME280_humidity;BME280_pressure;Samples;Min_cycle;Max_cycle;Signal;HPM_P1;HPM_P2
2021/04/25 00:01:31;;;;;;;10.07;7.73;;;;;;;;;;5099261;28;20553;-95
2021/04/25 00:03:57;;;;;;;11.90;7.73;;;;;;;;;;5103480;28;20441;-94
2021/04/25 00:06:23;;;;;;;9.33;8.03;;;;;;;;;;5099867;28;20993;-94
2021/04/25 00:08:50;;;;;;;16.73;9.83;;;;;;;;;;5083654;28;20484;-95
2021/04/25 00:11:16;;;;;;;16.67;10.80;;;;;;;;;;5098413;28;20440;-95
2021/04/25 00:13:43;;;;;;;16.03;10.93;;;;;;;;;;5100328;28;20432;-94
2021/04/25 00:16:10;;;;;;;14.13;10.60;;;;;;;;;;5098950;28;20468;-94
2021/04/25 00:18:36;;;;;;;13.20;10.40;;;;;;;;;;5100202;28;20453;-94
2021/04/25 00:21:02;;;;;;;15.13;9.70;;;;;;;;;;5098903;28;20457;-93
2021/04/25 00:23:28;;;;;;;15.70;10.27;;;;;;;;;;5101468;28;20490;-93
2021/04/25 00:25:55;;;;;;;10.83;9.00;;;;;;;;;;5101051;28;20448;-92
2021/04/25 00:28:21;;;;;;;12.10;8.60;;;;;;;;;;5101190;28;20460;-93
2021/04/25 00:30:47;;;;;;;10.83;7.80;;;;;;;;;;5100914;28;20452;-93
2021/04/25 00:33:13;;;;;;;10.90;8.80;;;;;;;;;;5097716;28;20491;-93
2021/04/25 00:35:39;;;;;;;10.53;9.23;;;;;;;;;;5100367;28;20489;-92
2021/04/25 00:38:05;;;;;;;11.10;9.20;;;;;;;;;;5099694;28;20462;-93
2021/04/25 00:40:31;;;;;;;12.43;9.53;;;;;;;;;;5103668;28;20511;-93
2021/04/25 00:42:58;;;;;;;12.90;9.07;;;;;;;;;;5106023;28;20448;-93
2021/04/25 00:45:24;;;;;;;15.87;9.77;;;;;;;;;;5102832;28;20444;-93
2021/04/25 00:47:50;;;;;;;9.13;7.43;;;;;;;;;;5099598;28;20460;-94
2021/04/25 00:50:18;;;;;;;11.47;8.67;;;;;;;;;;5101018;28;20484;-94
2021/04/25 00:52:45;;;;;;;11.10;8.33;;;;;;;;;;5098689;28;20444;-94
2021/04/25 00:55:11;;;;;;;10.30;7.97;;;;;;;;;;5100922;28;20481;-94
2021/04/25 00:57:37;;;;;;;13.63;9.00;;;;;;;;;;5098247;28;21276;-93
2021/04/25 01:00:06;;;;;;;11.63;8.70;;;;;;;;;;5101542;28;20513;-94
2021/04/25 01:02:33;;;;;;;13.03;9.07;;;;;;;;;;5098295;28;20448;-93
2021/04/25 01:04:59;;;;;;;13.53;9.27;;;;;;;;;;5083444;28;20479;-94
2021/04/25 01:07:25;;;;;;;9.20;7.40;;;;;;;;;;5100620;28;20444;-94
2021/04/25 01:09:51;;;;;;;11.13;9.60;;;;;;;;;;5098039;28;20501;-94
2021/04/25 01:12:17;;;;;;;13.80;9.33;;;;;;;;;;5099738;28;20443;-94
2021/04/25 01:14:43;;;;;;;11.00;8.83;;;;;;;;;;5098173;28;20461;-94
2021/04/25 01:17:10;;;;;;;14.43;10.03;;;;;;;;;;5101930;28;20463;-93
2021/04/25 01:19:36;;;;;;;12.53;9.43;;;;;;;;;;5101214;28;20470;-93
2021/04/25 01:22:03;;;;;;;13.93;9.97;;;;;;;;;;5105581;28;20448;-93
2021/04/25 01:24:29;;;;;;;11.77;7.80;;;;;;;;;;5102450;28;20517;-93
2021/04/25 01:26:55;;;;;;;8.60;7.03;;;;;;;;;;5104675;28;20452;-92
2021/04/25 01:29:21;;;;;;;13.33;9.40;;;;;;;;;;5101974;28;20509;-93
2021/04/25 01:31:47;;;;;;;9.43;7.97;;;;;;;;;;5105061;28;20509;-92
2021/04/25 01:34:13;;;;;;;16.37;10.07;;;;;;;;;;5101955;28;20453;-92
2021/04/25 01:36:39;;;;;;;9.27;7.60;;;;;;;;;;5104958;28;20985;-92
2021/04/25 01:39:06;;;;;;;8.47;7.53;;;;;;;;;;5102703;28;20463;-92
2021/04/25 01:41:32;;;;;;;8.57;7.17;;;;;;;;;;5105455;28;20452;-93
2021/04/25 01:43:59;;;;;;;9.10;7.63;;;;;;;;;;5102879;28;20448;-93
2021/04/25 01:46:25;;;;;;;15.40;9.73;;;;;;;;;;5104264;28;20446;-94
2021/04/25 01:48:51;;;;;;;11.53;8.90;;;;;;;;;;5105018;28;20502;-95
2021/04/25 01:51:16;;;;;;;9.30;8.30;;;;;;;;;;5106002;28;20483;-93
2021/04/25 01:53:42;;;;;;;13.13;9.13;;;;;;;;;;5107764;28;20456;-92
2021/04/25 01:56:09;;;;;;;11.07;8.50;;;;;;;;;;5101167;28;20442;-93
2021/04/25 01:58:35;;;;;;;9.93;8.37;;;;;;;;;;5103277;28;20445;-94
2021/04/25 02:01:02;;;;;;;12.30;9.10;;;;;;;;;;5096667;28;20651;-93
2021/04/25 02:03:28;;;;;;;17.30;8.70;;;;;;;;;;5102909;28;20451;-95
2021/04/25 02:05:54;;;;;;;11.83;8.70;;;;;;;;;;5101965;28;20477;-93
2021/04/25 02:08:20;;;;;;;19.00;10.37;;;;;;;;;;5103374;28;20460;-94
2021/04/25 02:10:46;;;;;;;11.47;9.60;;;;;;;;;;5101619;28;20454;-94
2021/04/25 02:13:13;;;;;;;14.80;11.03;;;;;;;;;;5103507;28;20456;-96
2021/04/25 02:15:40;;;;;;;13.00;10.40;;;;;;;;;;5100384;28;20440;-94
2021/04/25 02:18:06;;;;;;;13.63;9.68;;;;;;;;;;5101146;28;20467;-93
2021/04/25 02:20:32;;;;;;;17.07;10.70;;;;;;;;;;5096004;28;20214;-93
2021/04/25 02:22:58;;;;;;;13.10;9.30;;;;;;;;;;5098736;28;20451;-93
2021/04/25 02:25:25;;;;;;;11.80;9.90;;;;;;;;;;5103456;28;20210;-95
2021/04/25 02:27:52;;;;;;;14.65;11.98;;;;;;;;;;5101848;28;20485;-94
2021/04/25 02:30:20;;;;;;;14.10;11.20;;;;;;;;;;5102784;28;20293;-93
2021/04/25 02:32:47;;;;;;;16.52;10.80;;;;;;;;;;5097441;28;20477;-94
2021/04/25 02:35:13;;;;;;;14.63;11.20;;;;;;;;;;5094498;28;20209;-94
2021/04/25 02:37:40;;;;;;;15.87;12.13;;;;;;;;;;5096637;28;20455;-93
2021/04/25 02:40:07;;;;;;;18.20;13.00;;;;;;;;;;5099899;28;20862;-93
2021/04/25 02:42:33;;;;;;;19.00;12.10;;;;;;;;;;5097560;28;20486;-95
2021/04/25 02:44:59;;;;;;;17.27;12.37;;;;;;;;;;5101332;28;20441;-95
2021/04/25 02:47:26;;;;;;;19.00;12.90;;;;;;;;;;5096850;28;20459;-94
2021/04/25 02:49:52;;;;;;;22.20;12.87;;;;;;;;;;5098947;28;20498;-95
2021/04/25 02:52:18;;;;;;;15.90;11.03;;;;;;;;;;5099771;28;20459;-95
2021/04/25 02:54:44;;;;;;;13.53;10.23;;;;;;;;;;5102441;28;20440;-94
2021/04/25 02:57:10;;;;;;;17.27;14.50;;;;;;;;;;5101179;28;20457;-94
2021/04/25 02:59:36;;;;;;;17.53;10.47;;;;;;;;;;5103366;28;20523;-94
2021/04/25 03:02:02;;;;;;;14.13;11.43;;;;;;;;;;5100455;28;20463;-94
2021/04/25 03:04:29;;;;;;;20.60;13.43;;;;;;;;;;5102685;28;20444;-94
2021/04/25 03:06:55;;;;;;;17.35;12.40;;;;;;;;;;5101852;28;20448;-95
2021/04/25 03:09:21;;;;;;;21.33;13.90;;;;;;;;;;5099684;28;20236;-95
2021/04/25 03:11:48;;;;;;;24.73;18.70;;;;;;;;;;5083684;28;20451;-95
2021/04/25 03:14:14;;;;;;;27.10;18.80;;;;;;;;;;5099233;28;20462;-95
2021/04/25 03:16:40;;;;;;;21.50;17.97;;;;;;;;;;5103333;28;20448;-95
2021/04/25 03:19:06;;;;;;;24.97;19.90;;;;;;;;;;5100113;28;21104;-96
2021/04/25 03:21:33;;;;;;;27.07;19.70;;;;;;;;;;5103207;28;20463;-95
2021/04/25 03:23:59;;;;;;;29.50;21.80;;;;;;;;;;5100796;28;20476;-93
2021/04/25 03:26:25;;;;;;;27.13;20.97;;;;;;;;;;5102277;28;20217;-93
2021/04/25 03:28:51;;;;;;;34.77;27.47;;;;;;;;;;5100076;28;20533;-94
2021/04/25 03:31:17;;;;;;;43.17;35.20;;;;;;;;;;5101273;28;20450;-94
2021/04/25 03:33:43;;;;;;;49.07;39.17;;;;;;;;;;5098671;28;20463;-94
2021/04/25 03:36:09;;;;;;;49.45;38.00;;;;;;;;;;5100844;28;20505;-94
2021/04/25 03:38:36;;;;;;;39.25;29.98;;;;;;;;;;5097505;28;20296;-94
2021/04/25 03:41:02;;;;;;;31.40;24.95;;;;;;;;;;5102573;28;20204;-95
2021/04/25 03:43:28;;;;;;;37.35;22.70;;;;;;;;;;5101388;28;20237;-96
2021/04/25 03:45:54;;;;;;;26.90;19.53;;;;;;;;;;5099705;28;20282;-94
2021/04/25 03:48:20;;;;;;;26.87;18.17;;;;;;;;;;5102648;28;20455;-93
2021/04/25 03:50:46;;;;;;;22.97;17.80;;;;;;;;;;5099012;28;20900;-94
2021/04/25 03:53:12;;;;;;;23.13;17.77;;;;;;;;;;5102204;28;20501;-94
2021/04/25 03:55:39;;;;;;;22.90;17.33;;;;;;;;;;5099374;28;20457;-94
2021/04/25 03:58:05;;;;;;;20.60;16.23;;;;;;;;;;5100187;28;20466;-93
2021/04/25 04:00:31;;;;;;;23.07;17.53;;;;;;;;;;5099058;28;20612;-92
2021/04/25 04:02:57;;;;;;;23.88;17.75;;;;;;;;;;5102909;28;20951;-92
2021/04/25 04:05:23;;;;;;;22.50;17.17;;;;;;;;;;5100218;28;20201;-92
2021/04/25 04:07:49;;;;;;;26.03;19.20;;;;;;;;;;5102440;28;20465;-92
2021/04/25 04:10:15;;;;;;;33.20;21.47;;;;;;;;;;5099329;28;20497;-92
2021/04/25 04:12:42;;;;;;;26.63;19.92;;;;;;;;;;5101880;28;20454;-93
2021/04/25 04:15:09;;;;;;;28.60;21.15;;;;;;;;;;5099751;28;20220;-92
2021/04/25 04:17:35;;;;;;;27.50;21.05;;;;;;;;;;5102696;28;20213;-92
2021/04/25 04:20:01;;;;;;;33.95;23.60;;;;;;;;;;5099740;28;20209;-93
2021/04/25 04:22:27;;;;;;;26.20;20.60;;;;;;;;;;5099940;28;20216;-92
2021/04/25 04:24:53;;;;;;;22.43;18.47;;;;;;;;;;5101043;28;20456;-92
2021/04/25 04:27:19;;;;;;;24.47;17.80;;;;;;;;;;5098801;28;20448;-92
2021/04/25 04:29:45;;;;;;;26.27;19.90;;;;;;;;;;5102524;28;20490;-93
2021/04/25 04:32:11;;;;;;;21.90;16.58;;;;;;;;;;5099456;28;20458;-93
2021/04/25 04:34:37;;;;;;;25.03;18.63;;;;;;;;;;5102276;28;20220;-92
2021/04/25 04:37:04;;;;;;;23.50;18.63;;;;;;;;;;5098770;28;20479;-94
2021/04/25 04:39:30;;;;;;;28.33;20.05;;;;;;;;;;5101510;28;20206;-95
2021/04/25 04:41:56;;;;;;;27.80;19.13;;;;;;;;;;5098583;28;20221;-93
2021/04/25 04:44:22;;;;;;;31.27;20.27;;;;;;;;;;5100315;28;20454;-95
2021/04/25 04:46:48;;;;;;;26.50;17.50;;;;;;;;;;5099142;28;20460;-94
2021/04/25 04:49:14;;;;;;;22.10;17.42;;;;;;;;;;5102353;28;20521;-94
2021/04/25 04:51:41;;;;;;;23.73;16.87;;;;;;;;;;5100734;28;20225;-95
2021/04/25 04:54:07;;;;;;;19.83;15.97;;;;;;;;;;5106987;28;20459;-94
2021/04/25 04:56:33;;;;;;;31.50;18.77;;;;;;;;;;5106951;28;20478;-94
2021/04/25 04:58:59;;;;;;;33.13;21.80;;;;;;;;;;5106588;28;20460;-94
2021/04/25 05:01:25;;;;;;;25.60;19.70;;;;;;;;;;5106125;28;20501;-94
2021/04/25 05:03:52;;;;;;;24.67;20.50;;;;;;;;;;5103957;28;20464;-94
2021/04/25 05:06:18;;;;;;;20.93;17.87;;;;;;;;;;5106722;28;20471;-94
2021/04/25 05:08:44;;;;;;;28.30;18.97;;;;;;;;;;5103409;28;20452;-94
2021/04/25 05:11:10;;;;;;;22.77;18.27;;;;;;;;;;5105393;28;20458;-96
2021/04/25 05:13:36;;;;;;;21.90;17.53;;;;;;;;;;5101993;28;20481;-94
2021/04/25 05:16:02;;;;;;;26.33;20.40;;;;;;;;;;5105597;28;20448;-95
2021/04/25 05:18:28;;;;;;;27.23;21.00;;;;;;;;;;5094821;28;20463;-96
2021/04/25 05:20:55;;;;;;;25.63;19.97;;;;;;;;;;5105843;28;20472;-96
2021/04/25 05:23:21;;;;;;;28.60;19.50;;;;;;;;;;5102779;28;20451;-95
2021/04/25 05:25:47;;;;;;;25.10;19.30;;;;;;;;;;5088534;28;20836;-96
2021/04/25 05:28:13;;;;;;;26.20;20.03;;;;;;;;;;5104313;28;20454;-93
2021/04/25 05:30:39;;;;;;;27.30;20.73;;;;;;;;;;5104760;28;20855;-94
2021/04/25 05:33:05;;;;;;;28.37;21.03;;;;;;;;;;5101554;28;20452;-93
2021/04/25 05:35:31;;;;;;;24.57;20.33;;;;;;;;;;5104787;28;20464;-94
2021/04/25 05:37:58;;;;;;;26.63;20.77;;;;;;;;;;5105087;28;20446;-94
2021/04/25 05:40:24;;;;;;;28.03;19.80;;;;;;;;;;5104487;28;20940;-94
2021/04/25 05:42:50;;;;;;;26.20;19.33;;;;;;;;;;5104397;28;20444;-93
2021/04/25 05:45:22;;;;;;;24.47;19.17;;;;;;;;;;5099375;28;20462;-93
2021/04/25 05:47:49;;;;;;;26.37;20.20;;;;;;;;;;5102188;28;20463;-93
2021/04/25 05:50:16;;;;;;;26.07;19.23;;;;;;;;;;5101797;28;20525;-95
2021/04/25 05:52:42;;;;;;;23.33;20.60;;;;;;;;;;5105368;28;20440;-95
2021/04/25 05:55:10;;;;;;;20.83;16.47;;;;;;;;;;5102401;28;20436;-93
2021/04/25 05:57:36;;;;;;;19.50;16.43;;;;;;;;;;5105145;28;20444;-94
2021/04/25 06:00:02;;;;;;;20.77;15.67;;;;;;;;;;5101916;28;20486;-94
2021/04/25 06:02:28;;;;;;;18.63;14.50;;;;;;;;;;5105225;28;20459;-94
2021/04/25 06:04:54;;;;;;;20.43;14.50;;;;;;;;;;5106488;28;20456;-94
2021/04/25 06:07:20;;;;;;;18.10;13.87;;;;;;;;;;5104742;28;20459;-94
2021/04/25 06:09:46;;;;;;;18.33;13.50;;;;;;;;;;5102636;28;21293;-93
2021/04/25 06:12:13;;;;;;;16.73;13.70;;;;;;;;;;5104961;28;20516;-94
2021/04/25 06:14:40;;;;;;;15.93;13.10;;;;;;;;;;5102644;28;20448;-95
2021/04/25 06:17:06;;;;;;;18.30;14.70;;;;;;;;;;5105644;28;20505;-94
2021/04/25 06:19:32;;;;;;;17.70;14.10;;;;;;;;;;5103541;28;20545;-93
2021/04/25 06:21:57;;;;;;;20.20;14.40;;;;;;;;;;5100956;28;20824;-94
2021/04/25 06:24:24;;;;;;;16.80;13.23;;;;;;;;;;5103792;28;20808;-93
2021/04/25 06:26:50;;;;;;;16.40;13.03;;;;;;;;;;5104389;28;20475;-93
2021/04/25 06:29:17;;;;;;;19.40;14.40;;;;;;;;;;5104489;28;20484;-95
2021/04/25 06:31:43;;;;;;;17.43;13.13;;;;;;;;;;5101936;28;20460;-95
2021/04/25 06:34:09;;;;;;;15.87;14.17;;;;;;;;;;5076090;28;20540;-94
2021/04/25 06:36:41;;;;;;;16.00;13.17;;;;;;;;;;5100660;28;21073;-95
2021/04/25 06:39:07;;;;;;;18.17;12.70;;;;;;;;;;5098448;28;20551;-95
2021/04/25 06:41:33;;;;;;;16.20;13.03;;;;;;;;;;5095511;28;20456;-94
2021/04/25 06:43:59;;;;;;;16.97;11.60;;;;;;;;;;5102331;28;20483;-95
2021/04/25 06:46:26;;;;;;;14.07;11.30;;;;;;;;;;5102476;28;20461;-94
2021/04/25 06:48:52;;;;;;;17.47;11.20;;;;;;;;;;5103687;28;20453;-95
2021/04/25 06:51:18;;;;;;;18.33;12.23;;;;;;;;;;5100136;28;20472;-94
2021/04/25 06:53:44;;;;;;;17.90;13.70;;;;;;;;;;5102540;28;20449;-95
2021/04/25 06:56:10;;;;;;;18.40;13.53;;;;;;;;;;5096166;28;20447;-96
2021/04/25 06:58:36;;;;;;;16.27;12.13;;;;;;;;;;5088857;28;20487;-94
2021/04/25 07:01:03;;;;;;;16.07;12.00;;;;;;;;;;5102080;28;20457;-94
2021/04/25 07:03:30;;;;;;;16.73;13.60;;;;;;;;;;5101632;28;20458;-96
2021/04/25 07:05:56;;;;;;;20.33;13.37;;;;;;;;;;5104500;28;20458;-95
2021/04/25 07:08:24;;;;;;;22.60;15.00;;;;;;;;;;5095674;28;20469;-96
2021/04/25 07:10:51;;;;;;;25.73;15.47;;;;;;;;;;5104357;28;20498;-95
2021/04/25 07:13:17;;;;;;;18.00;13.80;;;;;;;;;;5098081;28;20464;-96
2021/04/25 07:15:44;;;;;;;19.77;12.83;;;;;;;;;;5097941;28;20443;-96
2021/04/25 07:18:11;;;;;;;20.30;12.90;;;;;;;;;;5092392;28;21092;-96
2021/04/25 07:20:38;;;;;;;17.60;12.10;;;;;;;;;;5098982;28;20443;-95
2021/04/25 07:23:04;;;;;;;19.83;12.40;;;;;;;;;;5096946;28;20461;-96
2021/04/25 07:28:19;;;;;;;17.47;11.30;;;;;;;;;;5096404;28;20456;-96
2021/04/25 07:30:47;;;;;;;15.93;12.37;;;;;;;;;;5102786;28;20496;-96
2021/04/25 07:33:14;;;;;;;15.00;11.20;;;;;;;;;;5099995;28;20460;-96
2021/04/25 07:35:41;;;;;;;13.40;10.80;;;;;;;;;;5107346;28;20455;-95
2021/04/25 07:38:07;;;;;;;13.90;11.00;;;;;;;;;;5100304;28;20455;-94
2021/04/25 07:40:34;;;;;;;19.70;11.70;;;;;;;;;;5113293;28;20984;-96
2021/04/25 07:43:03;;;;;;;19.80;11.30;;;;;;;;;;5170724;22;20486;-96
2021/04/25 07:45:29;;;;;;;17.20;10.60;;;;;;;;;;5069164;28;20442;-94
2021/04/25 07:47:56;;;;;;;14.90;10.13;;;;;;;;;;5050368;28;20447;-97
2021/04/25 07:50:24;;;;;;;18.70;10.87;;;;;;;;;;5075473;28;20462;-96
2021/04/25 07:52:51;;;;;;;12.87;10.90;;;;;;;;;;5062009;28;20475;-95
2021/04/25 07:55:18;;;;;;;16.40;10.93;;;;;;;;;;5057912;28;20446;-93
2021/04/25 07:57:47;;;;;;;13.37;10.30;;;;;;;;;;5058342;28;20454;-96
2021/04/25 08:00:14;;;;;;;13.73;9.70;;;;;;;;;;5178776;22;20662;-96
2021/04/25 08:02:40;;;;;;;13.47;10.13;;;;;;;;;;5103795;28;20451;-96
2021/04/25 08:05:08;;;;;;;13.97;9.80;;;;;;;;;;5095506;28;20553;-95
2021/04/25 08:07:34;;;;;;;12.50;9.10;;;;;;;;;;5108085;28;20452;-96
2021/04/25 08:10:01;;;;;;;15.50;9.60;;;;;;;;;;5105829;28;20475;-95
2021/04/25 08:12:27;;;;;;;11.97;9.63;;;;;;;;;;5103500;28;20448;-95
2021/04/25 08:14:53;;;;;;;12.07;8.30;;;;;;;;;;5099119;28;20444;-96
2021/04/25 08:17:19;;;;;;;13.53;8.97;;;;;;;;;;5097535;28;20442;-95
2021/04/25 08:22:26;;;;;;;10.20;8.37;;;;;;;;;;5101217;22;20506;-95
2021/04/25 08:24:52;;;;;;;10.70;9.60;;;;;;;;;;5046781;28;20431;-96
2021/04/25 08:27:46;;;;;;;11.50;8.83;;;;;;;;;;5065863;28;20484;-96
2021/04/25 08:30:13;;;;;;;10.20;8.60;;;;;;;;;;5052537;28;20490;-95
2021/04/25 08:35:46;;;;;;;10.87;9.00;;;;;;;;;;5052033;28;20431;-96
2021/04/25 08:38:12;;;;;;;13.43;8.83;;;;;;;;;;5052386;28;20466;-94
2021/04/25 08:40:55;;;;;;;14.50;10.90;;;;;;;;;;5059202;28;20434;-96
2021/04/25 08:43:33;;;;;;;10.20;8.50;;;;;;;;;;5077382;22;20473;-96
2021/04/25 08:45:59;;;;;;;14.03;9.07;;;;;;;;;;5023875;28;20514;-96
2021/04/25 08:48:48;;;;;;;10.23;8.73;;;;;;;;;;5025007;28;20465;-96
2021/04/25 08:51:14;;;;;;;11.27;8.40;;;;;;;;;;5018675;28;20567;-96
2021/04/25 08:53:40;;;;;;;10.67;8.63;;;;;;;;;;5069022;23;20521;-96
2021/04/25 08:56:06;;;;;;;12.77;8.20;;;;;;;;;;5105779;28;20548;-96
2021/04/25 08:58:34;;;;;;;10.20;8.00;;;;;;;;;;5093635;28;20464;-96
2021/04/25 09:01:00;;;;;;;11.60;8.80;;;;;;;;;;5115492;28;20556;-96
2021/04/25 09:03:47;;;;;;;11.00;8.27;;;;;;;;;;5125008;28;21102;-96
2021/04/25 09:06:19;;;;;;;11.30;8.20;;;;;;;;;;5131865;27;20427;-96
2021/04/25 09:08:47;;;;;;;10.57;7.93;;;;;;;;;;5119629;28;20451;-96
2021/04/25 09:11:26;;;;;;;10.80;6.93;;;;;;;;;;5121465;28;20562;-95
2021/04/25 09:14:07;;;;;;;9.60;7.70;;;;;;;;;;5125633;28;20430;-96
2021/04/25 09:16:36;;;;;;;12.10;8.37;;;;;;;;;;5117187;28;20444;-96
2021/04/25 09:19:02;;;;;;;17.93;16.03;;;;;;;;;;5117460;28;20531;-95
2021/04/25 09:21:29;;;;;;;14.50;8.20;;;;;;;;;;5127992;28;20452;-96
2021/04/25 09:23:55;;;;;;;9.53;7.40;;;;;;;;;;5119452;28;20468;-96
2021/04/25 09:26:21;;;;;;;17.90;8.27;;;;;;;;;;5117673;28;20489;-95
2021/04/25 09:28:59;;;;;;;16.70;9.33;;;;;;;;;;5116257;28;20517;-96
2021/04/25 09:31:27;;;;;;;30.93;11.87;;;;;;;;;;5127311;22;20482;-96
2021/04/25 09:33:57;;;;;;;10.70;7.50;;;;;;;;;;5071456;28;20442;-96
2021/04/25 09:36:25;;;;;;;7.73;6.80;;;;;;;;;;5064593;28;20448;-96
2021/04/25 09:38:54;;;;;;;9.10;7.40;;;;;;;;;;5063063;28;20975;-96
2021/04/25 09:41:24;;;;;;;13.00;7.00;;;;;;;;;;5063119;28;20506;-95
2021/04/25 09:43:50;;;;;;;9.93;6.77;;;;;;;;;;5063613;28;20471;-94
2021/04/25 09:46:17;;;;;;;10.40;8.27;;;;;;;;;;5065604;28;20443;-95
2021/04/25 09:48:43;;;;;;;9.77;6.90;;;;;;;;;;5068913;28;20520;-93
2021/04/25 09:53:59;;;;;;;6.93;6.30;;;;;;;;;;5094470;22;20482;-94
2021/04/25 09:56:37;;;;;;;6.77;6.13;;;;;;;;;;5177982;22;20484;-96
2021/04/25 09:59:05;;;;;;;6.80;6.10;;;;;;;;;;5136559;27;20426;-96
2021/04/25 10:01:32;;;;;;;6.83;6.20;;;;;;;;;;5132570;28;20433;-96
2021/04/25 10:03:59;;;;;;;9.87;6.93;;;;;;;;;;5125867;28;20453;-96
2021/04/25 10:06:48;;;;;;;7.60;6.77;;;;;;;;;;5131119;28;20427;-96
2021/04/25 10:09:23;;;;;;;6.93;6.23;;;;;;;;;;5135067;28;20451;-96
2021/04/25 10:11:49;;;;;;;6.40;5.90;;;;;;;;;;5130938;28;20517;-95
2021/04/25 10:14:15;;;;;;;7.50;6.40;;;;;;;;;;5115202;28;20522;-94
2021/04/25 10:16:42;;;;;;;9.13;6.37;;;;;;;;;;5127042;28;20448;-96
2021/04/25 10:19:09;;;;;;;9.63;7.23;;;;;;;;;;5133830;28;20502;-96
2021/04/25 10:21:44;;;;;;;7.17;6.30;;;;;;;;;;5127131;28;20435;-96
2021/04/25 10:24:11;;;;;;;6.60;5.50;;;;;;;;;;5134060;28;20433;-96
2021/04/25 10:26:56;;;;;;;7.30;6.07;;;;;;;;;;5129403;27;20451;-97
2021/04/25 10:29:24;;;;;;;6.97;6.00;;;;;;;;;;5124908;22;20542;-96
2021/04/25 10:31:55;;;;;;;7.27;6.07;;;;;;;;;;5112853;28;20428;-96
2021/04/25 10:34:24;;;;;;;8.43;6.57;;;;;;;;;;5109440;28;20455;-96
2021/04/25 10:37:13;;;;;;;8.20;5.90;;;;;;;;;;5109858;28;20452;-96
2021/04/25 10:40:05;;;;;;;6.80;6.20;;;;;;;;;;5110773;28;20451;-96
2021/04/25 10:42:38;;;;;;;6.33;5.83;;;;;;;;;;5123735;22;20463;-96
2021/04/25 10:45:33;;;;;;;7.20;6.50;;;;;;;;;;5172108;22;20550;-96
2021/04/25 10:48:18;;;;;;;7.43;6.60;;;;;;;;;;5084019;22;20457;-96
2021/04/25 10:50:45;;;;;;;6.87;6.13;;;;;;;;;;5082405;28;20497;-96
2021/04/25 10:55:52;;;;;;;6.23;5.67;;;;;;;;;;5090414;28;20438;-96
2021/04/25 10:58:22;;;;;;;6.87;6.27;;;;;;;;;;5083792;28;20497;-96
2021/04/25 11:00:49;;;;;;;7.93;6.37;;;;;;;;;;5078314;28;20481;-96
2021/04/25 11:03:30;;;;;;;6.90;5.73;;;;;;;;;;5104881;22;20481;-96
2021/04/25 11:06:03;;;;;;;6.97;6.00;;;;;;;;;;5333638;22;20473;-96
2021/04/25 11:08:38;;;;;;;6.27;5.50;;;;;;;;;;5052533;28;20550;-96
2021/04/25 11:11:11;;;;;;;6.10;5.60;;;;;;;;;;5078212;23;20545;-96
2021/04/25 11:13:39;;;;;;;9.03;5.47;;;;;;;;;;5092756;28;20449;-96
2021/04/25 11:16:06;;;;;;;6.00;5.47;;;;;;;;;;5092624;28;20449;-96
2021/04/25 11:21:21;;;;;;;5.50;5.00;;;;;;;;;;5088113;28;20247;-96
2021/04/25 11:23:48;;;;;;;5.60;5.10;;;;;;;;;;5095584;28;20449;-96
2021/04/25 11:26:44;;;;;;;5.40;4.90;;;;;;;;;;5079284;28;20445;-96
2021/04/25 11:29:48;;;;;;;6.67;5.60;;;;;;;;;;5048873;28;20452;-96
2021/04/25 11:32:24;;;;;;;5.57;5.07;;;;;;;;;;5096879;28;20479;-96
2021/04/25 11:37:53;;;;;;;7.30;4.93;;;;;;;;;;5118236;22;20468;-95
2021/04/25 11:40:30;;;;;;;7.53;5.63;;;;;;;;;;5075171;28;20446;-96
2021/04/25 11:43:00;;;;;;;5.37;4.90;;;;;;;;;;5134751;22;20561;-93
2021/04/25 11:48:05;;;;;;;6.53;5.67;;;;;;;;;;5170971;23;20461;-96
2021/04/25 11:50:32;;;;;;;5.70;5.20;;;;;;;;;;5108889;28;20478;-96
2021/04/25 11:55:39;;;;;;;5.00;4.50;;;;;;;;;;4786333;26;20482;-96
2021/04/25 11:58:05;;;;;;;5.80;5.20;;;;;;;;;;5044620;28;20493;-96
2021/04/25 12:00:32;;;;;;;6.40;5.80;;;;;;;;;;5028252;28;20512;-96
2021/04/25 12:03:01;;;;;;;5.90;5.40;;;;;;;;;;5042608;28;20440;-96
2021/04/25 12:05:28;;;;;;;5.60;5.10;;;;;;;;;;5065853;23;20470;-95
2021/04/25 12:08:01;;;;;;;5.13;4.73;;;;;;;;;;5083328;23;20497;-96
2021/04/25 12:10:31;;;;;;;4.67;4.27;;;;;;;;;;5093296;28;20480;-96
2021/04/25 12:13:01;;;;;;;5.40;4.33;;;;;;;;;;5096522;28;20436;-96
2021/04/25 12:15:28;;;;;;;6.97;4.77;;;;;;;;;;5097424;28;20418;-96
2021/04/25 12:17:55;;;;;;;5.37;4.87;;;;;;;;;;5076678;28;20451;-96
2021/04/25 12:20:21;;;;;;;5.57;5.10;;;;;;;;;;5086663;28;20439;-96
2021/04/25 12:22:49;;;;;;;5.73;5.13;;;;;;;;;;5118424;22;20497;-94
2021/04/25 12:25:15;;;;;;;5.83;5.33;;;;;;;;;;5040374;28;20441;-96
2021/04/25 12:27:48;;;;;;;5.33;4.93;;;;;;;;;;5043982;28;20443;-96
2021/04/25 12:30:18;;;;;;;5.50;5.00;;;;;;;;;;5042938;28;20493;-95
2021/04/25 12:32:44;;;;;;;5.70;4.70;;;;;;;;;;5032990;28;20457;-95
2021/04/25 12:35:10;;;;;;;5.67;4.77;;;;;;;;;;5024840;28;20473;-96
2021/04/25 12:40:28;;;;;;;4.77;4.37;;;;;;;;;;5100839;23;20480;-96
2021/04/25 12:43:06;;;;;;;7.73;5.10;;;;;;;;;;5054443;28;20449;-93
2021/04/25 12:45:33;;;;;;;7.90;4.87;;;;;;;;;;5061657;28;20471;-94
2021/04/25 12:47:59;;;;;;;5.50;5.00;;;;;;;;;;5072470;28;20461;-94
2021/04/25 12:50:25;;;;;;;5.13;4.63;;;;;;;;;;5097386;23;20506;-95
2021/04/25 12:52:51;;;;;;;5.53;5.03;;;;;;;;;;5101490;28;20440;-96
2021/04/25 12:55:24;;;;;;;8.60;5.00;;;;;;;;;;5106017;28;20440;-95
2021/04/25 12:58:06;;;;;;;4.97;4.57;;;;;;;;;;5095207;28;20541;-95
2021/04/25 13:00:41;;;;;;;6.40;4.60;;;;;;;;;;5120869;22;20482;-96
2021/04/25 13:05:53;;;;;;;5.80;5.00;;;;;;;;;;5107912;28;20476;-95
2021/04/25 13:08:29;;;;;;;6.33;4.50;;;;;;;;;;5116912;28;20466;-96
2021/04/25 13:10:55;;;;;;;5.03;3.93;;;;;;;;;;5118958;28;20537;-95
2021/04/25 13:13:23;;;;;;;4.20;3.90;;;;;;;;;;5116431;28;20446;-96
2021/04/25 13:15:49;;;;;;;5.30;4.40;;;;;;;;;;5107444;28;20455;-96
2021/04/25 13:18:15;;;;;;;4.87;4.40;;;;;;;;;;5104263;28;20459;-96
2021/04/25 13:20:45;;;;;;;4.37;3.60;;;;;;;;;;5105660;28;20444;-96
2021/04/25 13:23:12;;;;;;;3.70;3.40;;;;;;;;;;5137431;22;20528;-96
2021/04/25 13:25:39;;;;;;;3.67;3.37;;;;;;;;;;5057413;28;20453;-96
2021/04/25 13:28:06;;;;;;;3.40;3.10;;;;;;;;;;5042298;28;20450;-96
2021/04/25 13:30:36;;;;;;;5.07;3.27;;;;;;;;;;5075299;22;20493;-95
2021/04/25 13:33:03;;;;;;;3.97;2.90;;;;;;;;;;5065699;28;20461;-96
2021/04/25 13:35:30;;;;;;;4.80;3.07;;;;;;;;;;5086339;22;20523;-96
2021/04/25 13:37:57;;;;;;;4.50;3.57;;;;;;;;;;5090365;28;20464;-96
2021/04/25 13:40:24;;;;;;;4.43;3.40;;;;;;;;;;5078688;28;20441;-96
2021/04/25 13:42:50;;;;;;;3.30;3.00;;;;;;;;;;5085177;28;20488;-96
2021/04/25 13:45:20;;;;;;;3.47;3.27;;;;;;;;;;5089143;28;20466;-96
2021/04/25 13:47:47;;;;;;;2.77;2.57;;;;;;;;;;5177304;22;20548;-96
2021/04/25 13:50:42;;;;;;;3.63;3.33;;;;;;;;;;5101086;22;20496;-94
2021/04/25 13:53:09;;;;;;;3.43;3.07;;;;;;;;;;5078851;22;20478;-96
2021/04/25 13:55:37;;;;;;;2.90;2.70;;;;;;;;;;5107312;22;20508;-96
2021/04/25 13:58:03;;;;;;;4.00;2.87;;;;;;;;;;5111690;28;20437;-96
2021/04/25 14:00:31;;;;;;;3.70;3.40;;;;;;;;;;5106308;28;20456;-95
2021/04/25 14:02:59;;;;;;;3.30;3.00;;;;;;;;;;5132024;22;20491;-96
2021/04/25 14:08:07;;;;;;;5.13;3.50;;;;;;;;;;4913789;26;20321;-96
2021/04/25 14:10:34;;;;;;;3.50;3.20;;;;;;;;;;5090961;28;20787;-95
2021/04/25 14:13:00;;;;;;;3.47;3.20;;;;;;;;;;5085993;28;20441;-96
2021/04/25 14:15:31;;;;;;;3.83;3.20;;;;;;;;;;5089650;28;20449;-96
2021/04/25 14:21:01;;;;;;;3.67;3.37;;;;;;;;;;5094111;28;20516;-96
2021/04/25 14:23:27;;;;;;;3.53;3.20;;;;;;;;;;5096655;28;20447;-96
2021/04/25 14:25:53;;;;;;;3.53;3.20;;;;;;;;;;5093855;28;20427;-96
2021/04/25 14:28:20;;;;;;;3.77;3.20;;;;;;;;;;5077707;28;20434;-96
2021/04/25 14:30:49;;;;;;;4.17;3.77;;;;;;;;;;5081823;28;20515;-96
2021/04/25 14:33:16;;;;;;;3.73;3.43;;;;;;;;;;5086078;28;20445;-95
2021/04/25 14:36:16;;;;;;;5.07;3.90;;;;;;;;;;5084045;28;20461;-96
2021/04/25 14:38:45;;;;;;;3.63;3.33;;;;;;;;;;5080269;28;20456;-96
2021/04/25 14:41:11;;;;;;;3.93;3.53;;;;;;;;;;5073935;28;20459;-96
2021/04/25 14:43:38;;;;;;;3.50;3.20;;;;;;;;;;5090494;28;20425;-96
2021/04/25 14:46:07;;;;;;;3.27;3.07;;;;;;;;;;5092619;23;20469;-96
2021/04/25 14:48:33;;;;;;;3.40;3.10;;;;;;;;;;5066890;28;20484;-93
2021/04/25 14:50:59;;;;;;;3.10;2.90;;;;;;;;;;5064368;28;21031;-96
2021/04/25 14:53:26;;;;;;;3.53;3.23;;;;;;;;;;5059842;28;20455;-96
2021/04/25 14:55:57;;;;;;;3.87;3.40;;;;;;;;;;5060926;28;20442;-96
2021/04/25 14:58:23;;;;;;;4.10;3.73;;;;;;;;;;5061287;28;20458;-93
2021/04/25 15:00:49;;;;;;;3.20;2.93;;;;;;;;;;5065459;28;20449;-96
2021/04/25 15:03:18;;;;;;;3.73;3.40;;;;;;;;;;5063122;28;20801;-96
2021/04/25 15:05:45;;;;;;;4.47;3.13;;;;;;;;;;5062097;28;20458;-95
2021/04/25 15:10:55;;;;;;;3.43;3.13;;;;;;;;;;5066217;28;20550;-94
2021/04/25 15:13:21;;;;;;;3.37;3.03;;;;;;;;;;5068699;28;20425;-96